Time;durP1;ratioP1;P1;durP2;ratioP2;P2;SDS_P1;SDS_P2;PMS_P1;PMS_P2;Temp;Humidity;BMP_temperature;BMP_pressure;BME280_temperature;BME280_humidity;BME280_pressure;Samples;Min_cycle;Max_cycle;Signal;HPM_P1;HPM_P2
2021/09/19 06:44:05;;;;;;;4.63;2.77;;;;;;;15.68;76.25;99646.92;1771798;79;22776;-72
2021/09/19 06:46:33;;;;;;;3.83;2.50;;;;;;;15.67;75.72;99648.03;1747700;80;21153;-71
2021/09/19 06:49:01;;;;;;;4.37;2.27;;;;;;;15.67;75.32;99656.90;1743652;81;21132;-72
2021/09/19 06:51:28;;;;;;;2.47;2.03;;;;;;;15.63;75.15;99650.53;1744479;81;21003;-72
2021/09/19 06:53:55;;;;;;;3.43;2.40;;;;;;;15.62;75.00;99640.84;1751928;80;21085;-73
2021/09/19 06:56:22;;;;;;;3.20;2.20;;;;;;;15.66;75.28;99641.86;1736565;80;21050;-73
2021/09/19 06:58:50;;;;;;;4.70;2.10;;;;;;;15.81;75.53;99635.23;1769551;79;21083;-73
2021/09/19 07:01:16;;;;;;;3.43;2.23;;;;;;;15.96;75.54;99639.38;1741507;80;21076;-73
2021/09/19 07:03:44;;;;;;;4.00;2.40;;;;;;;16.08;75.58;99639.53;1778505;79;21766;-73
2021/09/19 07:06:10;;;;;;;3.23;2.53;;;;;;;16.19;75.29;99637.34;1765579;80;21597;-73
2021/09/19 07:08:38;;;;;;;4.93;3.77;;;;;;;16.18;75.05;99634.39;1773030;79;21003;-73
2021/09/19 07:11:07;;;;;;;5.47;3.40;;;;;;;16.11;74.63;99640.25;1774468;80;21086;-73
2021/09/19 07:13:33;;;;;;;4.80;3.20;;;;;;;16.07;74.90;99639.86;1766733;79;22147;-72
2021/09/19 07:16:02;;;;;;;4.37;3.10;;;;;;;16.03;74.97;99634.31;1764236;80;21031;-72
2021/09/19 07:18:29;;;;;;;5.20;3.57;;;;;;;16.00;75.04;99633.59;1769455;79;21529;-72
2021/09/19 07:20:57;;;;;;;4.83;3.40;;;;;;;16.03;75.51;99624.10;1729564;81;21113;-72
2021/09/19 07:23:24;;;;;;;4.93;3.53;;;;;;;16.11;75.69;99633.52;1756081;80;21059;-72
2021/09/19 07:25:52;;;;;;;5.07;3.57;;;;;;;16.16;75.79;99632.03;1749048;80;21151;-72
2021/09/19 07:28:19;;;;;;;4.17;3.30;;;;;;;16.21;75.66;99630.28;1770003;79;21043;-71
2021/09/19 07:30:46;;;;;;;4.60;3.40;;;;;;;16.25;75.31;99629.31;1747308;80;21055;-72
2021/09/19 07:33:14;;;;;;;4.40;3.50;;;;;;;16.26;75.25;99629.57;1756573;80;21597;-73
2021/09/19 07:35:42;;;;;;;4.40;3.60;;;;;;;16.27;75.59;99631.15;1753386;81;21050;-71
2021/09/19 07:38:09;;;;;;;5.73;3.10;;;;;;;16.39;75.72;99635.91;1727932;81;21105;-73
2021/09/19 07:40:36;;;;;;;5.13;3.27;;;;;;;16.55;74.86;99634.84;1770777;80;21165;-72
2021/09/19 07:43:07;;;;;;;4.13;3.23;;;;;;;16.70;74.15;99637.61;1777653;80;21070;-73
2021/09/19 07:45:34;;;;;;;4.27;3.00;;;;;;;16.84;73.41;99634.98;1791843;79;21669;-73
2021/09/19 07:48:03;;;;;;;4.33;3.13;;;;;;;16.98;73.17;99625.38;1769078;80;21636;-72
2021/09/19 07:50:30;;;;;;;4.97;3.60;;;;;;;17.01;73.05;99621.22;1734346;79;22891;-72
2021/09/19 07:52:57;;;;;;;4.67;3.00;;;;;;;16.97;72.99;99621.07;1762142;80;21050;-72
2021/09/19 07:55:27;;;;;;;5.37;2.70;;;;;;;16.94;73.09;99619.02;1781172;79;21495;-72
2021/09/19 07:57:52;;;;;;;4.43;2.80;;;;;;;17.01;73.11;99620.69;1767075;80;21023;-72
2021/09/19 08:00:20;;;;;;;5.83;3.00;;;;;;;17.06;73.34;99623.75;1739093;81;21086;-73
2021/09/19 08:02:46;;;;;;;4.93;2.43;;;;;;;17.15;73.25;99619.69;1742494;80;21110;-73
2021/09/19 08:05:13;;;;;;;3.47;2.50;;;;;;;17.33;72.97;99620.61;1752314;80;21122;-73
2021/09/19 08:07:42;;;;;;;5.57;3.00;;;;;;;17.49;72.37;99615.45;1760294;79;21054;-73
2021/09/19 08:10:10;;;;;;;6.27;3.27;;;;;;;17.65;71.76;99623.01;1750558;80;21090;-72
2021/09/19 08:12:41;;;;;;;3.97;2.60;;;;;;;17.79;71.03;99618.96;1776088;79;21062;-72
2021/09/19 08:15:09;;;;;;;4.63;3.33;;;;;;;17.97;70.68;99618.30;1769209;79;21189;-71
2021/09/19 08:17:35;;;;;;;5.13;3.07;;;;;;;18.11;69.96;99618.03;1766301;79;21094;-72
2021/09/19 08:20:03;;;;;;;3.93;3.03;;;;;;;18.23;69.42;99615.39;1777130;80;21576;-72
2021/09/19 08:22:30;;;;;;;4.37;2.43;;;;;;;18.31;68.79;99613.73;1777788;80;21126;-73
2021/09/19 08:25:00;;;;;;;4.33;2.97;;;;;;;18.28;68.62;99610.34;1771991;79;21611;-71
2021/09/19 08:27:27;;;;;;;4.77;3.07;;;;;;;18.31;68.54;99609.67;1763398;80;21431;-71
2021/09/19 08:29:54;;;;;;;5.20;2.80;;;;;;;18.39;68.37;99606.09;1772499;79;21114;-73
2021/09/19 08:32:21;;;;;;;6.10;3.43;;;;;;;18.47;68.17;99599.04;1778671;80;21055;-72
2021/09/19 08:34:48;;;;;;;6.93;4.00;;;;;;;18.51;67.83;99599.95;1771406;79;21090;-72
2021/09/19 08:37:15;;;;;;;4.83;3.73;;;;;;;18.45;67.27;99593.16;1781569;80;21025;-72
2021/09/19 08:39:42;;;;;;;6.10;3.50;;;;;;;18.40;67.22;99592.82;1770088;79;21110;-71
2021/09/19 08:42:08;;;;;;;6.27;3.60;;;;;;;18.35;67.25;99591.66;1775218;80;22660;-72
2021/09/19 08:44:35;;;;;;;5.27;3.70;;;;;;;18.33;67.31;99587.17;1769444;79;21173;-72
2021/09/19 08:47:02;;;;;;;4.73;3.63;;;;;;;18.31;67.39;99589.41;1775193;80;21074;-71
2021/09/19 08:49:31;;;;;;;6.70;4.33;;;;;;;18.36;67.37;99589.74;1774977;79;21055;-71
2021/09/19 08:51:58;;;;;;;5.87;4.40;;;;;;;18.44;67.42;99592.95;1743433;80;21180;-71
2021/09/19 08:54:25;;;;;;;5.57;3.70;;;;;;;18.55;67.33;99587.33;1745562;80;22468;-71
2021/09/19 08:56:52;;;;;;;5.20;3.93;;;;;;;18.62;66.91;99588.14;1737430;80;21052;-71
2021/09/19 08:59:19;;;;;;;6.43;4.27;;;;;;;18.62;66.99;99583.52;1746299;80;21062;-71
2021/09/19 09:02:03;;;;;;;5.33;3.80;;;;;;;18.69;66.39;99582.97;1732370;80;21336;-73
2021/09/19 09:04:30;;;;;;;5.20;4.10;;;;;;;18.74;66.20;99580.09;1721857;83;21345;-71
2021/09/19 09:06:57;;;;;;;4.57;3.80;;;;;;;18.77;66.13;99573.23;1742539;81;21058;-71
2021/09/19 09:09:25;;;;;;;5.60;3.80;;;;;;;18.82;65.90;99571.64;1750716;81;21549;-71
2021/09/19 09:12:11;;;;;;;5.33;3.70;;;;;;;18.86;65.85;99577.42;1751319;80;21098;-73
2021/09/19 09:14:43;;;;;;;5.93;3.40;;;;;;;18.79;66.15;99577.19;1751831;80;21011;-73
2021/09/19 09:17:22;;;;;;;5.90;3.40;;;;;;;18.69;67.02;99580.27;1743875;80;21033;-72
2021/09/19 09:19:54;;;;;;;7.17;3.90;;;;;;;18.58;68.12;99578.55;1746050;81;21122;-72
2021/09/19 09:22:32;;;;;;;4.67;3.47;;;;;;;18.45;69.30;99575.59;1724651;81;22100;-72
2021/09/19 09:25:17;;;;;;;6.53;3.73;;;;;;;18.33;70.60;99572.30;1737248;80;21129;-72
2021/09/19 09:27:48;;;;;;;5.57;3.70;;;;;;;18.21;71.28;99577.09;1745101;80;21063;-72
2021/09/19 09:30:24;;;;;;;5.17;3.77;;;;;;;18.14;71.76;99571.43;1751974;81;21056;-72
2021/09/19 09:33:03;;;;;;;5.13;3.63;;;;;;;18.07;72.53;99575.80;1749303;80;21067;-72
2021/09/19 09:35:41;;;;;;;6.00;3.90;;;;;;;17.95;72.63;99582.70;1753142;80;21004;-72
2021/09/19 09:38:20;;;;;;;6.17;3.70;;;;;;;17.78;72.84;99583.63;1731950;81;21066;-72
2021/09/19 09:40:47;;;;;;;4.30;3.53;;;;;;;17.66;73.04;99580.02;1751769;81;21099;-72
2021/09/19 09:43:22;;;;;;;6.10;4.90;;;;;;;17.63;73.50;99578.77;1743668;80;21116;-72
2021/09/19 09:46:08;;;;;;;7.13;5.07;;;;;;;17.61;73.24;99574.83;1743720;80;21546;-72
2021/09/19 09:48:41;;;;;;;7.20;4.60;;;;;;;17.57;73.82;99578.19;1732911;80;21051;-72
2021/09/19 09:51:23;;;;;;;6.30;4.20;;;;;;;17.69;74.66;99579.38;1774162;79;21027;-72
2021/09/19 09:53:59;;;;;;;4.73;3.40;;;;;;;17.86;74.94;99569.03;1779868;79;21055;-72
2021/09/19 09:56:27;;;;;;;5.33;3.73;;;;;;;18.13;74.64;99559.58;1753642;80;21149;-74
2021/09/19 09:58:54;;;;;;;5.57;4.17;;;;;;;18.32;73.54;99556.39;1755385;81;21012;-73
2021/09/19 10:01:22;;;;;;;4.97;3.73;;;;;;;18.43;72.52;99561.06;1757498;80;21024;-73
2021/09/19 10:03:48;;;;;;;4.33;3.60;;;;;;;18.50;72.02;99555.90;1752821;80;21043;-73
2021/09/19 10:06:15;;;;;;;4.87;3.87;;;;;;;18.61;71.78;99559.52;1750657;80;21413;-73
2021/09/19 10:08:43;;;;;;;4.80;3.83;;;;;;;18.69;70.93;99553.22;1760447;80;21082;-73
2021/09/19 10:11:12;;;;;;;7.33;4.17;;;;;;;18.76;70.84;99553.51;1761775;80;21014;-74
2021/09/19 10:13:44;;;;;;;4.87;3.70;;;;;;;18.81;70.39;99547.86;1759757;80;21582;-73
2021/09/19 10:16:14;;;;;;;5.17;3.70;;;;;;;18.94;70.85;99550.80;1750318;81;21094;-74
2021/09/19 10:18:48;;;;;;;4.33;3.57;;;;;;;19.09;70.35;99546.66;1716333;81;21051;-73
2021/09/19 10:21:22;;;;;;;5.30;3.40;;;;;;;19.23;70.08;99540.89;1771770;79;21151;-73
2021/09/19 10:23:50;;;;;;;4.57;3.17;;;;;;;19.37;69.16;99543.24;1780241;79;21011;-73
2021/09/19 10:26:23;;;;;;;4.23;3.43;;;;;;;19.40;68.30;99536.58;1761308;80;21579;-73
2021/09/19 10:28:54;;;;;;;4.20;3.30;;;;;;;19.42;67.23;99537.04;1731028;80;21023;-72
2021/09/19 10:31:24;;;;;;;;;;;;;;;19.43;66.79;99537.25;1741880;80;21055;-73
2021/09/19 10:34:04;;;;;;;3.80;2.90;;;;;;;19.40;66.48;99543.34;1745420;81;20151;-72
2021/09/19 10:36:53;;;;;;;4.43;3.10;;;;;;;19.30;65.86;99547.09;1747791;81;21046;-72
2021/09/19 10:39:41;;;;;;;4.07;3.57;;;;;;;19.06;65.63;99547.89;1740687;81;21036;-73
2021/09/19 10:42:15;;;;;;;5.40;3.40;;;;;;;18.73;66.71;99550.91;1756489;80;21569;-73
2021/09/19 10:44:52;;;;;;;4.83;4.03;;;;;;;18.36;66.30;99554.60;1762905;81;21036;-72
2021/09/19 10:47:30;;;;;;;4.70;4.00;;;;;;;17.99;67.02;99566.62;1748029;81;21145;-72
2021/09/19 10:50:36;;;;;;;5.43;4.93;;;;;;;17.56;67.92;99579.84;1741854;80;21079;-72
2021/09/19 10:53:23;;;;;;;4.70;4.20;;;;;;;17.10;69.26;99588.26;1742751;81;21427;-71
2021/09/19 10:56:02;;;;;;;4.50;3.70;;;;;;;16.89;70.90;99594.93;1748916;81;21559;-72
2021/09/19 10:58:38;;;;;;;5.63;3.97;;;;;;;16.80;72.18;99590.11;1745974;81;21213;-72
2021/09/19 11:01:18;;;;;;;4.27;3.83;;;;;;;16.66;73.03;99584.89;1756546;80;21135;-72
2021/09/19 11:04:08;;;;;;;5.58;4.62;;;;;;;16.58;73.62;99585.69;1738811;81;21010;-72
2021/09/19 11:06:38;;;;;;;6.10;5.00;;;;;;;16.55;74.12;99588.48;1756675;79;21048;-72
2021/09/19 11:09:28;;;;;;;7.73;4.63;;;;;;;16.60;74.51;99586.17;1760362;80;21116;-73
2021/09/19 11:12:22;;;;;;;5.33;4.30;;;;;;;16.68;74.91;99588.59;1752353;80;21561;-73
2021/09/19 11:14:59;;;;;;;8.30;5.97;;;;;;;16.76;75.17;99588.62;1749344;80;21061;-72
2021/09/19 11:17:31;;;;;;;7.15;6.45;;;;;;;16.88;75.34;99585.27;1754207;80;21083;-73
2021/09/19 11:20:17;;;;;;;5.47;4.97;;;;;;;16.97;75.21;99584.66;1778030;80;21059;-72
2021/09/19 11:22:56;;;;;;;5.20;4.70;;;;;;;17.04;75.48;99589.55;1740429;80;21098;-73
2021/09/19 11:25:24;;;;;;;5.93;4.63;;;;;;;17.08;75.51;99587.24;1771355;79;21511;-72
2021/09/19 11:27:53;;;;;;;4.50;4.03;;;;;;;17.10;75.43;99584.20;1768742;79;21480;-73
2021/09/19 11:30:23;;;;;;;4.37;2.40;;;;;;;17.00;75.09;99589.97;1766274;80;21466;-73
2021/09/19 11:32:48;;;;;;;2.63;1.90;;;;;;;16.79;73.55;99590.67;1755708;80;21613;-71
2021/09/19 11:35:16;;;;;;;2.07;1.50;;;;;;;16.63;73.44;99599.80;1762553;79;21194;-72
2021/09/19 11:37:44;;;;;;;2.37;1.10;;;;;;;16.48;73.08;99602.98;1761957;79;22178;-72
2021/09/19 11:40:13;;;;;;;2.40;1.00;;;;;;;16.34;72.59;99602.38;1759499;79;21553;-72
2021/09/19 11:42:39;;;;;;;1.97;1.20;;;;;;;16.25;73.46;99596.20;1727179;79;21035;-73
2021/09/19 11:45:09;;;;;;;1.70;1.27;;;;;;;16.25;74.15;99604.28;1771338;79;21134;-72
2021/09/19 11:47:40;;;;;;;1.97;1.10;;;;;;;16.22;72.87;99590.09;1767626;79;21015;-73
2021/09/19 11:50:10;;;;;;;2.77;1.20;;;;;;;16.12;71.98;99597.41;1736774;80;21183;-73
2021/09/19 11:52:37;;;;;;;2.60;1.50;;;;;;;16.01;71.53;99600.16;1736940;80;21176;-73
2021/09/19 11:55:05;;;;;;;2.80;1.57;;;;;;;15.82;69.52;99604.49;1732958;80;20996;-72
2021/09/19 11:57:32;;;;;;;1.67;1.00;;;;;;;15.65;68.13;99601.19;1773869;80;21052;-72
2021/09/19 12:00:05;;;;;;;1.57;0.90;;;;;;;15.52;67.80;99602.11;1746320;81;21592;-73
2021/09/19 12:02:36;;;;;;;2.07;0.83;;;;;;;15.40;67.53;99599.22;1741960;80;22387;-73
2021/09/19 12:05:07;;;;;;;1.12;0.80;;;;;;;15.14;69.28;99616.09;1752173;80;21122;-73
2021/09/19 12:07:35;;;;;;;0.87;0.60;;;;;;;15.14;69.28;99616.09;1752510;80;20963;-72
2021/09/19 12:10:04;;;;;;;4.00;2.70;;;;;;;14.98;68.41;99622.97;1750146;80;21161;-73
2021/09/19 12:12:32;;;;;;;7.93;5.40;;;;;;;14.88;69.40;99616.52;1744441;80;21608;-73
2021/09/19 12:14:59;;;;;;;7.53;4.63;;;;;;;14.79;70.37;99611.08;1752817;80;21043;-72
2021/09/19 12:17:29;;;;;;;13.43;9.03;;;;;;;14.72;71.63;99608.83;1748012;80;21721;-72
2021/09/19 12:20:02;;;;;;;6.87;4.20;;;;;;;14.66;72.14;99610.05;1733218;80;21544;-72
2021/09/19 12:22:30;;;;;;;5.80;3.30;;;;;;;14.63;72.49;99608.53;1772143;80;21561;-71
2021/09/19 12:25:05;;;;;;;5.30;2.90;;;;;;;14.66;73.18;99608.70;1744687;80;21050;-73
2021/09/19 12:27:42;;;;;;;13.70;9.37;;;;;;;14.75;73.57;99603.39;1766466;80;22216;-73
2021/09/19 12:30:13;;;;;;;12.33;8.77;;;;;;;14.84;73.96;99605.58;1772742;79;21101;-72
2021/09/19 12:32:49;;;;;;;3.70;2.00;;;;;;;14.94;73.80;99609.91;1770303;79;21392;-72
2021/09/19 12:35:30;;;;;;;1.40;0.90;;;;;;;14.98;73.79;99612.21;1772331;80;21045;-72
2021/09/19 12:38:03;;;;;;;1.40;0.80;;;;;;;14.98;72.96;99598.77;1757058;79;21630;-72
2021/09/19 12:40:30;;;;;;;1.75;1.10;;;;;;;14.95;73.52;99608.80;1761281;80;21065;-72
2021/09/19 12:43:12;;;;;;;1.73;0.80;;;;;;;14.97;74.01;99610.08;1759087;80;21150;-73
2021/09/19 12:45:51;;;;;;;1.17;0.83;;;;;;;14.99;74.09;99601.13;1750545;80;21051;-72
2021/09/19 12:48:27;;;;;;;3.23;1.10;;;;;;;15.02;74.06;99606.45;1751534;79;21050;-72
2021/09/19 12:51:01;;;;;;;2.13;1.20;;;;;;;15.02;74.18;99603.77;1755867;81;21475;-72
2021/09/19 12:53:30;;;;;;;2.17;1.20;;;;;;;15.05;74.09;99605.05;1743507;80;21070;-72
2021/09/19 12:56:01;;;;;;;2.50;1.50;;;;;;;15.02;73.93;99603.77;1752834;79;21050;-72
2021/09/19 12:58:28;;;;;;;3.13;1.60;;;;;;;14.97;74.09;99595.29;1747915;80;21062;-72
2021/09/19 13:00:55;;;;;;;2.30;1.13;;;;;;;14.97;74.18;99598.50;1755438;81;21165;-72
2021/09/19 13:03:23;;;;;;;2.17;1.10;;;;;;;14.95;74.47;99595.35;1758369;80;21103;-72
2021/09/19 13:05:51;;;;;;;1.10;0.80;;;;;;;14.96;74.79;99598.27;1781277;80;21605;-73
2021/09/19 13:08:19;;;;;;;0.93;0.70;;;;;;;15.00;74.83;99600.05;1747519;81;20988;-72
2021/09/19 13:10:47;;;;;;;1.13;0.80;;;;;;;15.05;75.18;99598.33;1779832;80;21067;-72
2021/09/19 13:13:16;;;;;;;1.33;0.70;;;;;;;15.09;75.19;99594.69;1781784;79;20937;-73
2021/09/19 13:15:45;;;;;;;1.30;0.70;;;;;;;15.12;75.12;99588.70;1770675;79;21517;-72
2021/09/19 13:18:13;;;;;;;1.17;0.90;;;;;;;15.20;75.43;99589.82;1767930;79;21581;-72
2021/09/19 13:20:41;;;;;;;1.80;0.80;;;;;;;15.28;75.55;99600.39;1762049;79;21058;-72
2021/09/19 13:23:10;;;;;;;1.30;0.90;;;;;;;15.23;75.25;99602.13;1779356;80;21481;-73
2021/09/19 13:25:39;;;;;;;1.20;0.80;;;;;;;15.16;75.06;99592.89;1770968;80;21712;-73
2021/09/19 13:28:09;;;;;;;1.50;0.80;;;;;;;15.13;75.00;99602.38;1766282;80;21008;-73
2021/09/19 13:30:35;;;;;;;2.03;0.90;;;;;;;15.11;75.06;99597.87;1744534;80;20992;-73
2021/09/19 13:33:02;;;;;;;1.13;0.70;;;;;;;15.08;75.25;99599.84;1756179;80;21516;-73
2021/09/19 13:35:29;;;;;;;3.57;0.90;;;;;;;15.03;75.58;99603.20;1756123;79;21035;-73
2021/09/19 13:37:56;;;;;;;0.70;0.67;;;;;;;14.99;75.76;99602.48;1740921;80;21094;-73
2021/09/19 13:40:22;;;;;;;1.27;0.73;;;;;;;14.95;76.34;99606.11;1757812;80;21039;-73
2021/09/19 13:42:49;;;;;;;1.47;0.80;;;;;;;14.87;76.65;99604.16;1759330;81;21042;-73
2021/09/19 13:45:15;;;;;;;2.17;0.70;;;;;;;14.85;77.05;99607.72;1761079;80;21106;-76
2021/09/19 13:47:43;;;;;;;1.10;0.60;;;;;;;14.80;76.76;99605.94;1740204;79;21066;-73
2021/09/19 13:50:11;;;;;;;1.30;0.70;;;;;;;14.75;76.52;99612.25;1763244;79;21626;-73
2021/09/19 13:52:37;;;;;;;1.27;0.60;;;;;;;14.64;75.76;99609.58;1761741;79;21526;-73
2021/09/19 13:55:05;;;;;;;1.00;0.70;;;;;;;14.52;75.50;99598.59;1768775;80;21094;-71
2021/09/19 13:57:31;;;;;;;0.70;0.50;;;;;;;14.42;75.44;99614.38;1761659;80;21102;-73
2021/09/19 13:59:59;;;;;;;1.13;0.70;;;;;;;14.30;75.31;99623.52;1760659;80;21051;-73
2021/09/19 14:02:27;;;;;;;0.63;0.50;;;;;;;13.94;73.69;99627.55;1751947;80;21022;-72
2021/09/19 14:04:54;;;;;;;1.30;0.53;;;;;;;13.49;73.13;99642.16;1743177;81;21751;-72
2021/09/19 14:07:23;;;;;;;2.30;0.70;;;;;;;13.04;73.50;99652.63;1731071;80;21761;-71
2021/09/19 14:09:49;;;;;;;0.70;0.50;;;;;;;12.66;73.24;99666.11;1773453;80;22207;-72
2021/09/19 14:12:18;;;;;;;1.03;0.73;;;;;;;12.40;73.91;99659.83;1768558;80;21740;-71
2021/09/19 14:14:45;;;;;;;1.57;0.70;;;;;;;12.06;74.24;99677.42;1770207;79;21741;-71
2021/09/19 14:17:13;;;;;;;1.37;0.50;;;;;;;12.06;74.24;99677.42;1755432;80;22031;-71
2021/09/19 14:19:42;;;;;;;0.97;0.60;;;;;;;11.92;74.44;99681.35;1761372;79;21463;-71
2021/09/19 14:22:08;;;;;;;1.17;0.60;;;;;;;11.76;74.41;99668.42;1736449;80;21473;-71
2021/09/19 14:24:35;;;;;;;1.20;0.50;;;;;;;11.66;74.85;99666.66;1742390;80;21493;-71
2021/09/19 14:27:02;;;;;;;0.50;0.40;;;;;;;11.59;74.73;99672.36;1753694;80;21936;-71
2021/09/19 14:29:28;;;;;;;1.43;0.60;;;;;;;11.55;75.06;99678.03;1758609;80;21303;-71
2021/09/19 14:31:56;;;;;;;1.33;0.73;;;;;;;11.47;74.71;99670.07;1750114;80;21164;-72
2021/09/19 14:34:25;;;;;;;3.57;2.00;;;;;;;11.44;75.00;99671.18;1749588;81;21726;-71
2021/09/19 14:36:53;;;;;;;1.40;0.70;;;;;;;11.41;74.90;99670.41;1760123;79;21371;-72
2021/09/19 14:39:20;;;;;;;1.80;0.70;;;;;;;11.36;75.14;99665.92;1742553;79;21722;-72
2021/09/19 14:41:47;;;;;;;1.27;0.50;;;;;;;11.35;75.32;99657.66;1761012;80;21830;-72
2021/09/19 14:44:15;;;;;;;0.70;0.50;;;;;;;11.29;75.26;99669.48;1739270;81;21349;-72
2021/09/19 14:46:41;;;;;;;1.33;0.70;;;;;;;11.26;75.43;99659.34;1752983;81;21143;-72
2021/09/19 14:49:08;;;;;;;2.10;0.63;;;;;;;11.25;75.70;99670.59;1750169;81;21279;-72
2021/09/19 14:51:37;;;;;;;4.10;0.60;;;;;;;11.26;75.70;99670.04;1779863;80;21621;-73
2021/09/19 14:54:05;;;;;;;2.90;0.97;;;;;;;11.24;75.73;99659.61;1763616;81;21145;-71
2021/09/19 14:56:33;;;;;;;1.73;0.60;;;;;;;11.22;75.80;99663.64;1746818;80;21336;-71
2021/09/19 14:59:01;;;;;;;1.93;0.97;;;;;;;11.22;76.24;99667.14;1708713;81;21397;-72
2021/09/19 15:01:30;;;;;;;2.40;1.10;;;;;;;11.21;75.90;99665.52;1756338;80;21314;-71
2021/09/19 15:03:57;;;;;;;1.87;0.80;;;;;;;11.20;76.08;99664.48;1753922;81;21255;-71
2021/09/19 15:06:24;;;;;;;1.30;0.70;;;;;;;11.20;76.06;99658.59;1750387;81;21062;-71
2021/09/19 15:08:52;;;;;;;1.17;0.60;;;;;;;11.19;76.16;99661.56;1763404;81;21260;-71
2021/09/19 15:11:20;;;;;;;1.10;0.60;;;;;;;11.18;75.91;99667.42;1744029;81;21285;-72
2021/09/19 15:13:48;;;;;;;0.80;0.60;;;;;;;11.16;75.92;99670.94;1758241;81;21388;-72
2021/09/19 15:16:16;;;;;;;1.00;0.60;;;;;;;11.12;75.59;99663.23;1750404;80;21443;-72
2021/09/19 15:18:44;;;;;;;0.70;0.50;;;;;;;11.09;75.93;99663.80;1747670;81;21342;-72
2021/09/19 15:21:12;;;;;;;0.87;0.60;;;;;;;11.08;75.87;99668.86;1735218;80;21849;-72
2021/09/19 15:23:41;;;;;;;1.30;0.70;;;;;;;11.04;75.71;99658.48;1737470;80;21329;-72
2021/09/19 15:26:09;;;;;;;1.60;0.90;;;;;;;11.01;75.80;99664.39;1755249;80;21310;-72
2021/09/19 15:28:39;;;;;;;2.30;0.80;;;;;;;10.98;75.71;99660.40;1748050;80;21263;-73
2021/09/19 15:31:06;;;;;;;1.40;0.80;;;;;;;10.96;75.51;99665.78;1775940;79;21347;-72
2021/09/19 15:33:33;;;;;;;2.00;0.97;;;;;;;10.94;75.30;99659.92;1749524;81;21818;-72
2021/09/19 15:36:00;;;;;;;1.67;1.07;;;;;;;10.94;75.20;99665.26;1752888;80;21284;-72
2021/09/19 15:38:27;;;;;;;2.87;1.03;;;;;;;10.91;75.07;99667.95;1774470;79;21130;-71
2021/09/19 15:40:57;;;;;;;1.37;0.90;;;;;;;10.90;75.23;99658.89;1768539;79;21317;-71
2021/09/19 15:43:29;;;;;;;1.53;0.90;;;;;;;10.87;75.51;99664.25;1761403;80;21417;-71
2021/09/19 15:45:59;;;;;;;2.37;0.90;;;;;;;10.91;75.71;99664.48;1745102;81;21292;-71
2021/09/19 15:48:28;;;;;;;;;;;;;;;10.93;75.89;99664.47;1743366;80;21322;-71
2021/09/19 15:51:00;;;;;;;2.50;1.40;;;;;;;10.92;76.12;99666.86;1741685;81;20179;-72
2021/09/19 15:53:28;;;;;;;2.40;1.20;;;;;;;10.92;76.08;99658.05;1750074;81;21856;-71
2021/09/19 15:55:55;;;;;;;2.10;1.30;;;;;;;10.91;75.88;99652.46;1755554;80;21268;-73
2021/09/19 15:58:24;;;;;;;1.97;1.17;;;;;;;10.87;76.09;99654.11;1746011;81;21309;-72
2021/09/19 16:00:52;;;;;;;2.37;1.20;;;;;;;10.84;76.06;99651.45;1747906;80;21965;-71
2021/09/19 16:03:20;;;;;;;3.47;1.20;;;;;;;10.83;76.24;99652.54;1743778;81;21728;-71
2021/09/19 16:05:49;;;;;;;2.30;1.20;;;;;;;10.87;76.28;99654.11;1750138;80;21307;-71
2021/09/19 16:08:25;;;;;;;2.00;1.30;;;;;;;10.89;76.37;99658.61;1743582;81;21824;-71
2021/09/19 16:10:58;;;;;;;2.93;1.40;;;;;;;10.89;76.44;99654.61;1730480;80;21263;-71
2021/09/19 16:13:32;;;;;;;2.03;1.20;;;;;;;10.89;75.97;99656.77;1759768;80;21561;-71
2021/09/19 16:16:06;;;;;;;2.40;1.20;;;;;;;10.89;75.61;99657.28;1757716;81;21798;-71
2021/09/19 16:18:33;;;;;;;2.63;1.20;;;;;;;10.86;75.23;99653.83;1751652;81;21694;-71
2021/09/19 16:21:00;;;;;;;2.93;1.60;;;;;;;10.83;75.11;99660.55;1746182;81;21209;-71
2021/09/19 16:23:28;;;;;;;5.83;1.53;;;;;;;10.82;75.10;99654.93;1758442;79;21723;-71
2021/09/19 16:25:55;;;;;;;3.37;1.57;;;;;;;10.86;75.23;99654.66;1764598;80;22167;-71
2021/09/19 16:28:23;;;;;;;2.87;1.40;;;;;;;10.87;75.33;99656.23;1759146;79;21310;-71
2021/09/19 16:30:49;;;;;;;3.00;1.33;;;;;;;10.88;75.47;99661.03;1755758;81;21664;-72
2021/09/19 16:33:18;;;;;;;2.10;1.17;;;;;;;10.89;75.36;99666.11;1777561;79;21859;-71
2021/09/19 16:35:44;;;;;;;2.27;1.10;;;;;;;10.87;75.05;99660.79;1770523;80;21317;-71
2021/09/19 16:38:11;;;;;;;1.73;1.03;;;;;;;10.82;74.70;99655.47;1752145;81;21961;-71
2021/09/19 16:40:39;;;;;;;2.83;1.30;;;;;;;10.78;74.71;99660.58;1743401;80;21752;-71
2021/09/19 16:43:09;;;;;;;1.97;1.10;;;;;;;10.74;74.41;99654.21;1776110;79;21783;-71
2021/09/19 16:45:36;;;;;;;2.37;1.23;;;;;;;10.70;74.18;99660.66;1746438;80;21220;-72
2021/09/19 16:48:04;;;;;;;1.73;1.10;;;;;;;10.68;74.17;99658.79;1777414;79;21252;-71
2021/09/19 16:50:31;;;;;;;3.53;0.90;;;;;;;10.65;73.83;99653.21;1766649;80;21174;-72
2021/09/19 16:52:59;;;;;;;1.77;1.00;;;;;;;10.62;74.04;99657.77;1754373;80;21375;-72
2021/09/19 16:55:26;;;;;;;1.87;1.00;;;;;;;10.62;74.35;99663.91;1750844;80;21402;-72
2021/09/19 16:57:54;;;;;;;1.97;1.10;;;;;;;10.63;74.41;99660.18;1740020;81;21201;-71
2021/09/19 17:00:21;;;;;;;2.30;1.20;;;;;;;10.61;74.18;99658.86;1746439;81;21419;-72
2021/09/19 17:02:48;;;;;;;1.70;0.90;;;;;;;10.55;74.29;99654.88;1734380;81;21543;-72
2021/09/19 17:05:15;;;;;;;1.27;0.70;;;;;;;10.54;74.46;99655.17;1762744;80;21205;-71
2021/09/19 17:07:45;;;;;;;1.97;0.87;;;;;;;10.53;74.59;99655.71;1740435;81;21579;-72
2021/09/19 17:10:14;;;;;;;2.00;1.00;;;;;;;10.49;74.54;99655.19;1776313;80;21284;-72
2021/09/19 17:12:43;;;;;;;2.33;1.00;;;;;;;10.51;74.78;99658.39;1771159;81;21249;-72
2021/09/19 17:15:14;;;;;;;2.83;1.20;;;;;;;10.51;75.01;99653.84;1762910;79;21354;-72
2021/09/19 17:17:41;;;;;;;1.50;1.00;;;;;;;10.53;75.15;99662.93;1757856;80;21169;-71
2021/09/19 17:23:17;;;;;;;3.20;1.30;;;;;;;10.56;75.19;99659.16;1761958;79;21331;-71
2021/09/19 17:25:46;;;;;;;2.07;1.10;;;;;;;10.56;75.39;99656.49;1791321;79;21147;-71
2021/09/19 17:28:14;;;;;;;2.20;1.40;;;;;;;10.56;75.48;99663.17;1757914;79;22010;-71
2021/09/19 17:30:42;;;;;;;3.00;1.20;;;;;;;10.55;75.51;99660.76;1751306;81;21393;-71
2021/09/19 17:33:09;;;;;;;1.73;0.97;;;;;;;10.55;75.46;99656.76;1748915;81;21392;-72
2021/09/19 17:35:36;;;;;;;2.57;1.30;;;;;;;10.55;75.62;99656.76;1784497;79;21240;-72
2021/09/19 17:38:05;;;;;;;3.03;1.70;;;;;;;10.55;75.86;99654.88;1773993;79;21653;-72
2021/09/19 17:40:33;;;;;;;3.17;1.50;;;;;;;10.58;76.03;99649.52;1752470;79;21847;-71
2021/09/19 17:43:00;;;;;;;2.20;1.20;;;;;;;10.63;76.09;99648.67;1757868;79;21430;-72
2021/09/19 17:45:27;;;;;;;3.33;1.53;;;;;;;10.67;76.23;99651.07;1756563;81;21268;-72
2021/09/19 17:47:55;;;;;;;3.10;1.30;;;;;;;10.72;76.41;99646.47;1767634;79;21853;-72
2021/09/19 17:50:23;;;;;;;2.40;1.40;;;;;;;10.77;76.67;99651.78;1776003;79;21221;-72
2021/09/19 17:52:51;;;;;;;2.23;1.10;;;;;;;10.82;76.75;99648.80;1758771;80;21285;-72
2021/09/19 17:55:18;;;;;;;1.90;1.20;;;;;;;10.87;76.81;99650.89;1754102;81;21261;-72
2021/09/19 17:57:44;;;;;;;2.77;1.43;;;;;;;10.91;76.82;99657.27;1756910;79;21292;-71
2021/09/19 18:00:13;;;;;;;2.17;1.33;;;;;;;10.92;76.82;99656.72;1762583;79;21392;-71
2021/09/19 18:02:42;;;;;;;2.80;1.40;;;;;;;10.91;76.92;99650.58;1761856;79;21361;-72
2021/09/19 18:05:09;;;;;;;1.80;1.20;;;;;;;10.88;76.76;99656.48;1752548;81;21810;-71
2021/09/19 18:07:37;;;;;;;3.03;1.43;;;;;;;10.88;76.76;99654.36;1759866;79;21332;-72
2021/09/19 18:10:06;;;;;;;1.70;1.10;;;;;;;10.82;76.78;99664.28;1766404;80;21275;-71
2021/09/19 18:12:34;;;;;;;2.17;1.43;;;;;;;10.76;76.83;99654.20;1750270;80;21099;-72
2021/09/19 18:15:01;;;;;;;2.60;1.47;;;;;;;10.74;77.04;99651.00;1733351;80;21822;-71
2021/09/19 18:17:30;;;;;;;2.40;1.30;;;;;;;10.75;77.17;99652.58;1751112;80;21208;-71
2021/09/19 18:19:58;;;;;;;1.87;1.23;;;;;;;10.81;77.09;99652.02;1757208;80;21308;-72
2021/09/19 18:22:26;;;;;;;2.53;1.50;;;;;;;10.83;77.13;99654.42;1705190;82;21292;-71
2021/09/19 18:24:53;;;;;;;3.03;1.53;;;;;;;10.85;77.02;99657.05;1763191;80;21850;-75
2021/09/19 18:27:25;;;;;;;2.27;1.20;;;;;;;10.82;76.83;99653.59;1768563;79;21349;-74
2021/09/19 18:29:52;;;;;;;2.50;1.43;;;;;;;10.76;76.96;99653.41;1771999;80;21958;-75
2021/09/19 18:32:21;;;;;;;2.70;1.40;;;;;;;10.71;77.10;99651.55;1767038;79;21849;-77